Time;durP1;ratioP1;P1;durP2;ratioP2;P2;SDS_P1;SDS_P2;PMS_P1;PMS_P2;Temp;Humidity;BMP_temperature;BMP_pressure;BME280_temperature;BME280_humidity;BME280_pressure;Samples;Min_cycle;Max_cycle;Signal;HPM_P1;HPM_P2
2022/12/01 00:00:58;;;;;;;;;;;5.90;99.90;;;;;;5104795;28;19928;-73
2022/12/01 00:03:24;;;;;;;;;;;5.90;99.90;;;;;;5009746;28;209174;-73
2022/12/01 00:05:57;;;;;;;;;;;6.00;99.90;;;;;;5072087;28;19936;-73
2022/12/01 00:08:23;;;;;;;;;;;5.90;99.90;;;;;;5012724;28;147256;-73
2022/12/01 00:10:49;;;;;;;;;;;5.90;99.90;;;;;;5106391;27;19925;-73
2022/12/01 00:13:15;;;;;;;;;;;5.90;99.90;;;;;;5026442;28;168774;-73
2022/12/01 00:15:40;;;;;;;;;;;5.90;99.90;;;;;;5078501;28;19935;-73
2022/12/01 00:18:06;;;;;;;;;;;5.90;99.90;;;;;;5046692;28;155371;-73
2022/12/01 00:20:33;;;;;;;;;;;6.00;99.90;;;;;;5058207;28;19932;-73
2022/12/01 00:22:59;;;;;;;;;;;5.90;99.90;;;;;;5025625;28;209160;-73
2022/12/01 00:25:26;;;;;;;;;;;5.90;99.90;;;;;;5056059;28;19927;-73
2022/12/01 00:27:52;;;;;;;;;;;5.90;99.90;;;;;;5020147;28;152438;-73
2022/12/01 00:30:19;;;;;;;;;;;5.90;99.90;;;;;;5076932;28;19924;-73
2022/12/01 00:32:45;;;;;;;;;;;5.90;99.90;;;;;;5036087;28;146046;-73
2022/12/01 00:35:11;;;;;;;;;;;5.90;99.90;;;;;;5067312;28;19920;-73
2022/12/01 00:37:37;;;;;;;;;;;5.90;99.90;;;;;;5044642;28;214605;-73
2022/12/01 00:40:05;;;;;;;;;;;5.90;99.90;;;;;;5072829;28;19924;-73
2022/12/01 00:42:31;;;;;;;;;;;5.90;99.90;;;;;;5015620;28;205598;-73
2022/12/01 00:44:57;;;;;;;;;;;5.90;99.90;;;;;;5059489;28;19921;-73
2022/12/01 00:47:23;;;;;;;;;;;5.90;99.90;;;;;;5026987;28;208489;-73
2022/12/01 00:49:51;;;;;;;;;;;5.90;99.90;;;;;;5060916;28;19927;-73
2022/12/01 00:52:17;;;;;;;;;;;5.90;99.90;;;;;;5000958;28;209933;-73
2022/12/01 00:54:43;;;;;;;;;;;5.90;99.90;;;;;;5074459;28;19932;-73
2022/12/01 00:57:10;;;;;;;;;;;5.90;99.90;;;;;;5021955;28;208747;-73
2022/12/01 00:59:36;;;;;;;;;;;5.90;99.90;;;;;;5060802;28;19924;-73
2022/12/01 01:02:03;;;;;;;;;;;5.90;99.90;;;;;;5006000;28;147066;-74
2022/12/01 01:04:29;;;;;;;;;;;5.90;99.90;;;;;;5074626;28;20381;-73
2022/12/01 01:06:55;;;;;;;;;;;5.90;99.90;;;;;;5014655;28;207443;-73
2022/12/01 01:09:21;;;;;;;;;;;5.90;99.90;;;;;;5027785;28;20293;-74
2022/12/01 01:11:47;;;;;;;;;;;5.90;99.90;;;;;;5023813;28;209361;-74
2022/12/01 01:14:13;;;;;;;;;;;5.90;99.90;;;;;;5071843;28;20317;-73
2022/12/01 01:16:39;;;;;;;;;;;5.90;99.90;;;;;;4999910;28;202841;-74
2022/12/01 01:19:06;;;;;;;;;;;5.90;99.90;;;;;;5056752;28;19927;-73
2022/12/01 01:21:32;;;;;;;;;;;5.90;99.90;;;;;;5003766;28;211532;-73
2022/12/01 01:23:57;;;;;;;;;;;5.90;99.90;;;;;;5082703;28;19931;-73
2022/12/01 01:26:25;;;;;;;;;;;5.90;99.90;;;;;;5022736;27;212245;-73
2022/12/01 01:28:51;;;;;;;;;;;5.80;99.90;;;;;;5058025;28;19929;-73
2022/12/01 01:31:22;;;;;;;;;;;5.80;99.90;;;;;;5085875;28;200087;-73
2022/12/01 01:33:48;;;;;;;;;;;5.90;99.90;;;;;;5061213;28;19944;-73
2022/12/01 01:36:14;;;;;;;;;;;5.90;99.90;;;;;;5073475;28;209262;-72
2022/12/01 01:38:40;;;;;;;;;;;5.90;99.90;;;;;;5049052;28;46371;-73
2022/12/01 01:41:07;;;;;;;;;;;5.90;99.90;;;;;;5109651;28;19931;-73
2022/12/01 01:43:42;;;;;;;;;;;5.80;99.90;;;;;;5026754;28;179221;-73
2022/12/01 01:46:15;;;;;;;;;;;5.90;99.90;;;;;;5068559;28;20313;-73
2022/12/01 01:48:43;;;;;;;;;;;5.80;99.90;;;;;;5036041;28;173302;-73
2022/12/01 01:51:11;;;;;;;;;;;5.80;99.90;;;;;;5084265;28;19936;-73
2022/12/01 01:53:37;;;;;;;;;;;5.90;99.90;;;;;;4989695;28;100814;-73
2022/12/01 01:56:03;;;;;;;;;;;5.80;99.90;;;;;;5075541;28;19978;-73
2022/12/01 01:58:30;;;;;;;;;;;5.80;99.90;;;;;;5042742;28;212569;-73
2022/12/01 02:00:56;;;;;;;;;;;5.80;99.90;;;;;;5098998;28;19928;-73
2022/12/01 02:03:23;;;;;;;;;;;5.80;99.90;;;;;;5017512;27;206454;-73
2022/12/01 02:05:49;;;;;;;;;;;5.80;99.90;;;;;;5072956;28;19924;-73
2022/12/01 02:08:15;;;;;;;;;;;5.80;99.90;;;;;;5000534;28;209395;-73
2022/12/01 02:10:44;;;;;;;;;;;5.80;99.90;;;;;;5102582;28;19931;-72
2022/12/01 02:13:12;;;;;;;;;;;5.80;99.90;;;;;;5016533;28;194046;-73
2022/12/01 02:16:04;;;;;;;;;;;5.80;99.90;;;;;;5071613;28;19920;-73
2022/12/01 02:18:42;;;;;;;;;;;5.80;99.90;;;;;;5005859;28;155235;-74
2022/12/01 02:21:38;;;;;;;;;;;5.80;99.90;;;;;;5065139;28;19920;-73
2022/12/01 02:24:24;;;;;;;;;;;5.80;99.90;;;;;;4978745;28;205270;-73
2022/12/01 02:26:52;;;;;;;;;;;5.80;99.90;;;;;;4996740;28;102405;-73
2022/12/01 02:29:21;;;;;;;;;;;5.80;99.90;;;;;;5058099;28;19924;-73
2022/12/01 02:31:50;;;;;;;;;;;5.80;99.90;;;;;;4988314;28;157931;-73
2022/12/01 02:34:39;;;;;;;;;;;5.80;99.90;;;;;;5016725;28;19925;-73
2022/12/01 02:37:29;;;;;;;;;;;5.80;99.90;;;;;;4989381;28;167343;-72
2022/12/01 02:39:58;;;;;;;;;;;5.80;99.90;;;;;;5040615;28;19921;-72
2022/12/01 02:45:16;;;;;;;;;;;5.80;99.90;;;;;;5027645;28;19929;-73
2022/12/01 02:47:43;;;;;;;;;;;5.80;99.90;;;;;;4992477;28;139744;-73
2022/12/01 02:50:10;;;;;;;;;;;5.80;99.90;;;;;;5069376;28;19943;-72
2022/12/01 02:52:37;;;;;;;;;;;5.80;99.90;;;;;;5008775;28;121265;-72
2022/12/01 02:55:03;;;;;;;;;;;5.70;99.90;;;;;;5045301;28;20436;-72
2022/12/01 02:57:29;;;;;;;;;;;5.80;99.90;;;;;;5002306;28;159460;-73
2022/12/01 02:59:56;;;;;;;;;;;5.80;99.90;;;;;;5048152;28;19935;-72
2022/12/01 03:02:28;;;;;;;;;;;5.70;99.90;;;;;;5019394;27;206563;-72
2022/12/01 03:04:57;;;;;;;;;;;5.80;99.90;;;;;;5047307;28;19924;-72
2022/12/01 03:07:32;;;;;;;;;;;5.70;99.90;;;;;;5028559;28;206463;-72
2022/12/01 03:10:07;;;;;;;;;;;5.80;99.90;;;;;;5076630;28;19920;-73
2022/12/01 03:12:34;;;;;;;;;;;5.80;99.90;;;;;;5017914;28;211515;-73
2022/12/01 03:15:18;;;;;;;;;;;5.80;99.90;;;;;;5069364;28;19935;-72
2022/12/01 03:17:57;;;;;;;;;;;5.80;99.90;;;;;;5030443;27;203657;-73
2022/12/01 03:20:26;;;;;;;;;;;5.80;99.90;;;;;;5087408;28;19921;-72
2022/12/01 03:22:59;;;;;;;;;;;5.80;99.90;;;;;;5034734;28;169533;-72
2022/12/01 03:25:27;;;;;;;;;;;5.80;99.90;;;;;;5080075;28;20392;-73
2022/12/01 03:27:55;;;;;;;;;;;5.80;99.90;;;;;;5013474;28;166076;-72
2022/12/01 03:30:23;;;;;;;;;;;5.80;99.90;;;;;;5070861;28;19920;-72
2022/12/01 03:33:03;;;;;;;;;;;5.80;99.90;;;;;;5024647;28;209721;-72
2022/12/01 03:35:31;;;;;;;;;;;5.80;99.90;;;;;;5069518;28;19920;-72
2022/12/01 03:37:57;;;;;;;;;;;5.80;99.90;;;;;;5046880;28;207540;-72
2022/12/01 03:40:26;;;;;;;;;;;5.80;99.90;;;;;;5080169;28;19920;-73
2022/12/01 03:42:54;;;;;;;;;;;5.80;99.90;;;;;;5034011;28;209087;-72
2022/12/01 03:45:35;;;;;;;;;;;5.70;99.90;;;;;;5076614;28;19937;-72
2022/12/01 03:48:01;;;;;;;;;;;5.80;99.90;;;;;;5033548;28;164001;-72
2022/12/01 03:50:34;;;;;;;;;;;5.80;99.90;;;;;;5071685;28;19931;-72
2022/12/01 03:53:00;;;;;;;;;;;5.70;99.90;;;;;;5039152;28;126741;-72
2022/12/01 03:55:30;;;;;;;;;;;5.70;99.90;;;;;;5075420;28;19947;-72
2022/12/01 03:57:59;;;;;;;;;;;5.70;99.90;;;;;;5025302;28;208899;-73
2022/12/01 04:00:25;;;;;;;;;;;5.70;99.90;;;;;;5056040;28;19921;-72
2022/12/01 04:02:58;;;;;;;;;;;5.70;99.90;;;;;;5014743;28;203318;-72
2022/12/01 04:05:24;;;;;;;;;;;5.70;99.90;;;;;;5073973;28;19927;-73
2022/12/01 04:07:51;;;;;;;;;;;5.70;99.90;;;;;;5019194;28;206904;-72
2022/12/01 04:10:17;;;;;;;;;;;5.70;99.90;;;;;;5063423;28;19947;-72
2022/12/01 04:12:43;;;;;;;;;;;5.70;99.90;;;;;;5005620;28;170545;-73
2022/12/01 04:15:11;;;;;;;;;;;5.70;99.90;;;;;;5095822;27;19929;-73
2022/12/01 04:17:38;;;;;;;;;;;5.70;99.90;;;;;;5024219;28;209828;-73
2022/12/01 04:20:05;;;;;;;;;;;5.70;99.90;;;;;;5074276;28;19924;-73
2022/12/01 04:22:32;;;;;;;;;;;5.70;99.90;;;;;;5031093;28;205811;-73
2022/12/01 04:24:57;;;;;;;;;;;5.70;99.90;;;;;;5071590;28;19927;-72
2022/12/01 04:27:23;;;;;;;;;;;5.70;99.90;;;;;;5022054;28;206402;-72
2022/12/01 04:29:49;;;;;;;;;;;5.70;99.90;;;;;;5078163;28;19998;-72
2022/12/01 04:32:15;;;;;;;;;;;5.70;99.90;;;;;;5033104;28;208986;-72
2022/12/01 04:34:42;;;;;;;;;;;5.70;99.90;;;;;;5081817;28;19924;-72
2022/12/01 04:37:08;;;;;;;;;;;5.70;99.90;;;;;;5024939;28;159416;-72
2022/12/01 04:39:34;;;;;;;;;;;5.70;99.90;;;;;;5064866;28;19920;-73
2022/12/01 04:42:01;;;;;;;;;;;5.70;99.90;;;;;;5043994;27;206573;-73
2022/12/01 04:44:27;;;;;;;;;;;5.70;99.90;;;;;;5039493;28;19927;-73
2022/12/01 04:46:53;;;;;;;;;;;5.70;99.90;;;;;;5025073;28;237013;-73
2022/12/01 04:49:20;;;;;;;;;;;5.70;99.90;;;;;;5058253;28;19931;-73
2022/12/01 04:51:46;;;;;;;;;;;5.70;99.90;;;;;;5023733;28;268695;-72
2022/12/01 04:54:13;;;;;;;;;;;5.70;99.90;;;;;;5073050;28;19924;-72
2022/12/01 04:56:39;;;;;;;;;;;5.70;99.90;;;;;;5022567;28;212348;-72
2022/12/01 04:59:05;;;;;;;;;;;5.70;99.90;;;;;;5086491;28;20439;-71
2022/12/01 05:01:31;;;;;;;;;;;5.70;99.90;;;;;;5011356;28;218305;-72
2022/12/01 05:03:57;;;;;;;;;;;5.70;99.90;;;;;;5037582;28;19963;-72
2022/12/01 05:06:24;;;;;;;;;;;5.70;99.90;;;;;;5023897;28;208285;-72
2022/12/01 05:08:53;;;;;;;;;;;5.70;99.90;;;;;;5034202;28;19929;-73
2022/12/01 05:11:19;;;;;;;;;;;5.70;99.90;;;;;;5045894;28;213644;-72
2022/12/01 05:13:46;;;;;;;;;;;5.70;99.90;;;;;;5030000;28;19936;-72
2022/12/01 05:16:13;;;;;;;;;;;5.70;99.90;;;;;;5067570;28;214476;-72
2022/12/01 05:18:40;;;;;;;;;;;5.70;99.90;;;;;;5025086;28;74768;-72
2022/12/01 05:21:07;;;;;;;;;;;5.70;99.90;;;;;;5109212;28;19932;-72
2022/12/01 05:23:33;;;;;;;;;;;5.70;99.90;;;;;;5025425;28;213975;-72
2022/12/01 05:26:00;;;;;;;;;;;5.70;99.90;;;;;;5090975;28;19924;-72
2022/12/01 05:28:26;;;;;;;;;;;5.70;99.90;;;;;;5026107;28;164116;-72
2022/12/01 05:30:53;;;;;;;;;;;5.70;99.90;;;;;;5082586;28;19924;-72
2022/12/01 05:33:20;;;;;;;;;;;5.70;99.90;;;;;;5026888;28;141561;-72
2022/12/01 05:35:47;;;;;;;;;;;5.70;99.90;;;;;;5072159;28;19935;-72
2022/12/01 05:38:13;;;;;;;;;;;5.70;99.90;;;;;;4980495;28;204803;-72
2022/12/01 05:40:39;;;;;;;;;;;5.70;99.90;;;;;;5071131;28;19934;-72
2022/12/01 05:43:05;;;;;;;;;;;5.70;99.90;;;;;;5020520;28;207159;-72
2022/12/01 05:45:31;;;;;;;;;;;5.70;99.90;;;;;;5105318;27;19920;-72
2022/12/01 05:47:58;;;;;;;;;;;5.70;99.90;;;;;;5024103;28;29282;-72
2022/12/01 05:50:25;;;;;;;;;;;5.70;99.90;;;;;;5066849;28;20003;-72
2022/12/01 05:52:51;;;;;;;;;;;5.60;99.90;;;;;;5043711;28;160854;-72
2022/12/01 05:55:17;;;;;;;;;;;5.60;99.90;;;;;;5074307;28;19924;-72
2022/12/01 05:57:43;;;;;;;;;;;5.60;99.90;;;;;;5029982;28;207125;-73
2022/12/01 06:00:10;;;;;;;;;;;5.60;99.90;;;;;;5076118;28;19932;-73
2022/12/01 06:02:36;;;;;;;;;;;5.60;99.90;;;;;;5022754;28;206513;-71
2022/12/01 06:05:02;;;;;;;;;;;5.60;99.90;;;;;;5082400;28;20324;-73
2022/12/01 06:07:28;;;;;;;;;;;5.60;99.90;;;;;;5020663;28;207096;-72
2022/12/01 06:09:54;;;;;;;;;;;5.60;99.90;;;;;;5064767;28;20018;-72
2022/12/01 06:12:20;;;;;;;;;;;5.50;99.90;;;;;;5015146;28;206373;-73
2022/12/01 06:14:46;;;;;;;;;;;5.40;99.90;;;;;;5070682;28;19935;-72
2022/12/01 06:17:12;;;;;;;;;;;5.40;99.90;;;;;;5019305;28;192349;-72
2022/12/01 06:19:38;;;;;;;;;;;5.30;99.90;;;;;;5070570;28;19968;-72
2022/12/01 06:22:04;;;;;;;;;;;5.20;99.90;;;;;;5032297;28;156651;-73
2022/12/01 06:24:30;;;;;;;;;;;5.10;99.90;;;;;;5079043;28;19925;-72
2022/12/01 06:26:57;;;;;;;;;;;5.00;99.90;;;;;;5031865;28;215042;-72
2022/12/01 06:29:23;;;;;;;;;;;4.90;99.90;;;;;;5073646;28;19928;-72
2022/12/01 06:31:49;;;;;;;;;;;4.80;99.90;;;;;;5020432;28;207214;-71
2022/12/01 06:34:15;;;;;;;;;;;4.80;99.90;;;;;;5080032;28;20443;-71
2022/12/01 06:36:41;;;;;;;;;;;4.70;99.90;;;;;;5017467;27;213703;-72
2022/12/01 06:39:10;;;;;;;;;;;4.60;99.90;;;;;;5055039;28;20192;-72
2022/12/01 06:41:37;;;;;;;;;;;4.60;99.90;;;;;;5016442;28;208105;-71
2022/12/01 06:44:03;;;;;;;;;;;4.50;99.90;;;;;;5085174;28;19928;-71
2022/12/01 06:46:29;;;;;;;;;;;4.40;99.90;;;;;;5016985;28;208954;-72
2022/12/01 06:48:55;;;;;;;;;;;4.40;99.90;;;;;;5051832;28;20431;-72
2022/12/01 06:51:21;;;;;;;;;;;4.30;99.90;;;;;;5034357;27;207977;-72
2022/12/01 06:53:47;;;;;;;;;;;4.30;99.90;;;;;;5052835;28;207618;-72
2022/12/01 06:56:13;;;;;;;;;;;4.30;99.90;;;;;;5061502;28;216715;-72
2022/12/01 06:58:39;;;;;;;;;;;4.30;99.90;;;;;;5018076;28;164514;-71
2022/12/01 07:01:09;;;;;;;;;;;4.30;99.90;;;;;;5075283;28;19925;-71
2022/12/01 07:03:35;;;;;;;;;;;4.30;99.90;;;;;;5016234;28;214965;-71
2022/12/01 07:06:01;;;;;;;;;;;4.40;99.90;;;;;;5079421;28;19928;-71
2022/12/01 07:08:28;;;;;;;;;;;4.40;99.90;;;;;;5026577;28;155759;-72
2022/12/01 07:10:58;;;;;;;;;;;4.50;99.90;;;;;;5090478;28;19932;-72
2022/12/01 07:13:24;;;;;;;;;;;4.50;99.90;;;;;;5023029;28;154503;-72
2022/12/01 07:15:50;;;;;;;;;;;4.60;99.90;;;;;;5073161;28;19928;-73
2022/12/01 07:18:15;;;;;;;;;;;4.60;99.90;;;;;;5027682;28;134337;-72
2022/12/01 07:20:41;;;;;;;;;;;4.60;99.90;;;;;;5065863;28;20260;-72
2022/12/01 07:23:07;;;;;;;;;;;4.70;99.90;;;;;;5005214;28;209109;-73
2022/12/01 07:25:33;;;;;;;;;;;4.70;99.90;;;;;;5069092;28;19929;-72
2022/12/01 07:27:59;;;;;;;;;;;4.70;99.90;;;;;;5024053;28;219554;-72
2022/12/01 07:30:25;;;;;;;;;;;4.70;99.90;;;;;;5074521;28;19924;-73
2022/12/01 07:32:51;;;;;;;;;;;4.70;99.90;;;;;;5030546;28;219062;-72
2022/12/01 07:35:17;;;;;;;;;;;4.80;99.90;;;;;;5069822;28;19929;-72
2022/12/01 07:37:43;;;;;;;;;;;4.80;99.90;;;;;;5029274;28;209073;-73
2022/12/01 07:40:09;;;;;;;;;;;4.80;99.90;;;;;;5076187;28;20024;-72
2022/12/01 07:42:35;;;;;;;;;;;4.80;99.90;;;;;;5034023;28;204550;-72
2022/12/01 07:45:01;;;;;;;;;;;4.90;99.90;;;;;;5077866;28;19932;-72
2022/12/01 07:47:27;;;;;;;;;;;4.90;99.90;;;;;;5025476;28;184374;-73
2022/12/01 07:49:53;;;;;;;;;;;4.80;99.90;;;;;;5076052;28;20455;-73
2022/12/01 07:52:19;;;;;;;;;;;4.90;99.90;;;;;;5033522;28;211688;-72
2022/12/01 07:54:45;;;;;;;;;;;4.90;99.90;;;;;;5076677;28;19971;-72
2022/12/01 07:57:13;;;;;;;;;;;4.80;99.90;;;;;;5030200;27;134674;-72
2022/12/01 07:59:39;;;;;;;;;;;4.80;99.90;;;;;;5077893;28;19920;-72
2022/12/01 08:02:05;;;;;;;;;;;4.70;99.90;;;;;;5009891;28;211933;-73
2022/12/01 08:04:31;;;;;;;;;;;4.70;99.90;;;;;;5076790;28;19928;-72
2022/12/01 08:06:57;;;;;;;;;;;4.60;99.90;;;;;;5018170;28;159312;-73
2022/12/01 08:09:23;;;;;;;;;;;4.50;99.90;;;;;;5059237;28;20385;-72
2022/12/01 08:11:49;;;;;;;;;;;4.50;99.90;;;;;;5009643;28;163968;-72
2022/12/01 08:14:14;;;;;;;;;;;4.40;99.90;;;;;;5092606;28;20023;-72
2022/12/01 08:16:40;;;;;;;;;;;4.40;99.90;;;;;;5025631;28;213310;-72
2022/12/01 08:19:09;;;;;;;;;;;4.40;99.90;;;;;;5058597;28;19928;-72
2022/12/01 08:21:36;;;;;;;;;;;4.40;99.90;;;;;;5017352;28;209004;-72
2022/12/01 08:24:03;;;;;;;;;;;4.30;99.90;;;;;;5068806;28;19920;-72
2022/12/01 08:26:29;;;;;;;;;;;4.30;99.90;;;;;;5020207;28;206652;-72
2022/12/01 08:28:55;;;;;;;;;;;4.30;99.90;;;;;;5079547;28;20399;-72
2022/12/01 08:31:23;;;;;;;;;;;4.30;99.90;;;;;;5059566;28;206917;-72
2022/12/01 08:33:50;;;;;;;;;;;4.30;99.90;;;;;;5058471;28;19928;-72
2022/12/01 08:36:16;;;;;;;;;;;4.20;99.90;;;;;;5056163;28;200107;-72
2022/12/01 08:38:43;;;;;;;;;;;4.20;99.90;;;;;;5019197;28;232679;-73
2022/12/01 08:41:09;;;;;;;;;;;4.20;99.90;;;;;;5069685;28;19924;-73
2022/12/01 08:43:40;;;;;;;;;;;4.20;99.90;;;;;;5030036;28;210006;-73
2022/12/01 08:46:06;;;;;;;;;;;4.10;99.90;;;;;;5072320;28;19932;-74
2022/12/01 08:48:33;;;;;;;;;;;4.20;99.90;;;;;;5041550;27;218756;-73
2022/12/01 08:51:02;;;;;;;;;;;4.10;99.90;;;;;;5084887;28;20412;-73
2022/12/01 08:53:28;;;;;;;;;;;4.10;99.90;;;;;;5007643;28;217607;-73
2022/12/01 08:55:54;;;;;;;;;;;4.10;99.90;;;;;;5071377;28;19935;-72
2022/12/01 08:58:20;;;;;;;;;;;4.20;99.90;;;;;;5009067;28;155336;-72
2022/12/01 09:00:46;;;;;;;;;;;4.10;99.90;;;;;;5071668;28;19931;-72
2022/12/01 09:03:12;;;;;;;;;;;4.20;99.90;;;;;;5025290;27;189319;-73
2022/12/01 09:05:38;;;;;;;;;;;4.20;99.90;;;;;;5064484;28;19927;-73
2022/12/01 09:10:51;;;;;;;;;;;4.30;99.90;;;;;;5066818;28;19921;-73
2022/12/01 09:13:17;;;;;;;;;;;4.20;99.90;;;;;;5017066;28;209707;-72
2022/12/01 09:15:43;;;;;;;;;;;4.30;99.90;;;;;;5068860;28;19931;-72
2022/12/01 09:18:09;;;;;;;;;;;4.30;99.90;;;;;;5025232;27;209365;-72
2022/12/01 09:20:35;;;;;;;;;;;4.30;99.90;;;;;;5068374;28;20003;-72
2022/12/01 09:23:01;;;;;;;;;;;4.30;99.90;;;;;;5011121;28;142538;-72
2022/12/01 09:25:27;;;;;;;;;;;4.30;99.90;;;;;;5068344;28;20357;-72
2022/12/01 09:27:53;;;;;;;;;;;4.40;99.90;;;;;;5017745;28;194915;-72
2022/12/01 09:30:19;;;;;;;;;;;4.40;99.90;;;;;;5067693;28;19931;-72
2022/12/01 09:32:45;;;;;;;;;;;4.40;99.90;;;;;;5029448;28;209507;-72
2022/12/01 09:35:10;;;;;;;;;;;4.50;99.90;;;;;;5070859;28;20038;-72
2022/12/01 09:37:36;;;;;;;;;;;4.50;99.90;;;;;;5016959;28;205367;-73
2022/12/01 09:40:02;;;;;;;;;;;4.50;99.90;;;;;;5069216;28;19928;-72
2022/12/01 09:42:29;;;;;;;;;;;4.60;99.90;;;;;;5034127;28;208721;-72
2022/12/01 09:44:56;;;;;;;;;;;4.60;99.90;;;;;;5068512;28;19925;-72
2022/12/01 09:47:26;;;;;;;;;;;4.60;99.90;;;;;;5013148;28;206328;-72
2022/12/01 09:49:53;;;;;;;;;;;4.60;99.90;;;;;;5089158;28;19928;-72
2022/12/01 09:52:19;;;;;;;;;;;4.70;99.90;;;;;;5001617;28;194120;-73
2022/12/01 09:54:46;;;;;;;;;;;4.70;99.90;;;;;;5080874;28;19928;-72
2022/12/01 09:57:35;;;;;;;;;;;4.70;99.90;;;;;;5003517;28;136913;-73
2022/12/01 10:00:06;;;;;;;;;;;4.70;99.90;;;;;;5025929;28;19967;-74
2022/12/01 10:02:34;;;;;;;;;;;4.80;99.90;;;;;;5004985;28;121648;-73
2022/12/01 10:05:01;;;;;;;;;;;4.80;99.90;;;;;;5034846;28;19920;-74
2022/12/01 10:07:30;;;;;;;;;;;4.80;99.90;;;;;;4994349;28;214175;-73
2022/12/01 10:09:57;;;;;;;;;;;4.90;99.90;;;;;;5028895;28;19935;-74
2022/12/01 10:12:26;;;;;;;;;;;4.90;99.90;;;;;;5008115;28;169033;-72
2022/12/01 10:14:55;;;;;;;;;;;5.00;99.90;;;;;;5044037;28;20483;-73
2022/12/01 10:17:35;;;;;;;;;;;5.10;99.90;;;;;;5012532;28;211944;-72
2022/12/01 10:20:20;;;;;;;;;;;5.10;99.90;;;;;;5056437;28;19935;-72
2022/12/01 10:23:01;;;;;;;;;;;5.10;99.90;;;;;;5016882;28;225560;-73
2022/12/01 10:25:30;;;;;;;;;;;5.20;99.90;;;;;;5061908;28;19939;-72
2022/12/01 10:28:14;;;;;;;;;;;5.30;99.90;;;;;;4986790;28;197865;-73
2022/12/01 10:30:47;;;;;;;;;;;5.30;99.90;;;;;;5065617;28;19921;-72
2022/12/01 10:33:28;;;;;;;;;;;5.30;99.90;;;;;;4997600;28;139994;-72
2022/12/01 10:35:54;;;;;;;;;;;5.40;99.90;;;;;;5063128;28;19929;-72
2022/12/01 10:38:27;;;;;;;;;;;5.40;99.90;;;;;;5008128;28;126449;-72
2022/12/01 10:40:56;;;;;;;;;;;5.50;99.90;;;;;;5063392;28;19920;-72
2022/12/01 10:43:26;;;;;;;;;;;5.60;99.90;;;;;;5008483;28;180928;-73
2022/12/01 10:45:52;;;;;;;;;;;5.60;99.90;;;;;;5070577;28;19929;-73
2022/12/01 10:48:19;;;;;;;;;;;5.70;99.90;;;;;;5023526;28;206944;-73
2022/12/01 10:50:50;;;;;;;;;;;5.80;99.90;;;;;;5105053;28;19932;-73
2022/12/01 10:53:22;;;;;;;;;;;6.00;99.90;;;;;;5013040;28;207603;-73
2022/12/01 10:56:06;;;;;;;;;;;6.00;99.90;;;;;;5071030;28;19936;-73
2022/12/01 10:58:38;;;;;;;;;;;6.20;99.90;;;;;;5029134;28;202204;-73
2022/12/01 11:01:05;;;;;;;;;;;6.30;99.90;;;;;;5068281;28;19921;-73
2022/12/01 11:03:32;;;;;;;;;;;6.30;99.90;;;;;;5008387;28;207568;-74
2022/12/01 11:05:59;;;;;;;;;;;6.40;99.90;;;;;;5051889;28;19932;-74
2022/12/01 11:08:40;;;;;;;;;;;6.50;99.90;;;;;;5010760;28;207384;-74
2022/12/01 11:11:20;;;;;;;;;;;6.50;99.90;;;;;;5068048;28;19978;-73
2022/12/01 11:13:46;;;;;;;;;;;6.60;99.90;;;;;;4973968;28;143633;-73
2022/12/01 11:16:32;;;;;;;;;;;6.50;99.90;;;;;;5063380;28;215945;-73
2022/12/01 11:19:27;;;;;;;;;;;6.50;99.90;;;;;;5035639;28;207290;-73
2022/12/01 11:21:54;;;;;;;;;;;6.60;99.90;;;;;;5037571;28;155666;-72
2022/12/01 11:24:26;;;;;;;;;;;6.70;99.90;;;;;;5035967;28;19924;-73
2022/12/01 11:26:52;;;;;;;;;;;6.80;99.90;;;;;;5016919;27;210309;-73
2022/12/01 11:29:27;;;;;;;;;;;6.80;99.90;;;;;;5061862;28;19920;-72
2022/12/01 11:31:54;;;;;;;;;;;6.80;99.90;;;;;;5020167;28;215105;-73
2022/12/01 11:34:24;;;;;;;;;;;6.80;99.90;;;;;;5055274;28;19928;-72
2022/12/01 11:36:52;;;;;;;;;;;7.00;99.90;;;;;;5027961;28;205708;-72
2022/12/01 11:39:23;;;;;;;;;;;7.10;99.90;;;;;;5064818;28;19916;-72
2022/12/01 11:41:54;;;;;;;;;;;7.20;99.90;;;;;;5048845;27;151483;-72
2022/12/01 11:44:20;;;;;;;;;;;7.20;99.90;;;;;;5068407;28;19925;-72
2022/12/01 11:46:46;;;;;;;;;;;7.30;99.90;;;;;;5048801;28;159942;-73
2022/12/01 11:49:20;;;;;;;;;;;7.30;99.90;;;;;;5050185;28;19935;-72
2022/12/01 11:51:46;;;;;;;;;;;7.30;99.90;;;;;;5027198;28;218945;-72
2022/12/01 11:54:20;;;;;;;;;;;7.40;99.90;;;;;;5052338;28;19924;-72
2022/12/01 11:56:47;;;;;;;;;;;7.40;99.90;;;;;;5047508;27;188192;-72
2022/12/01 11:59:26;;;;;;;;;;;7.30;99.90;;;;;;5049384;28;19928;-72
2022/12/01 12:01:52;;;;;;;;;;;7.30;99.90;;;;;;5019543;28;206357;-72
2022/12/01 12:04:30;;;;;;;;;;;7.40;99.90;;;;;;5074651;28;20197;-73
2022/12/01 12:06:56;;;;;;;;;;;7.30;99.90;;;;;;5023295;28;150603;-72
2022/12/01 12:09:25;;;;;;;;;;;7.40;99.90;;;;;;5070917;28;19928;-72
2022/12/01 12:11:51;;;;;;;;;;;8.00;99.90;;;;;;5025709;28;223495;-73
2022/12/01 12:14:31;;;;;;;;;;;8.00;99.90;;;;;;5082827;28;19963;-74
2022/12/01 12:16:56;;;;;;;;;;;8.10;99.90;;;;;;5026562;28;212387;-73
2022/12/01 12:19:52;;;;;;;;;;;8.50;99.90;;;;;;5088278;27;19974;-74
2022/12/01 12:22:32;;;;;;;;;;;8.40;99.90;;;;;;5007612;28;213824;-72
2022/12/01 12:25:22;;;;;;;;;;;8.20;99.90;;;;;;5056761;28;19963;-72
2022/12/01 12:27:48;;;;;;;;;;;8.10;99.90;;;;;;4985115;28;73152;-72
2022/12/01 12:30:22;;;;;;;;;;;8.10;99.90;;;;;;5057131;28;19925;-72
2022/12/01 12:32:54;;;;;;;;;;;8.10;99.90;;;;;;4975014;28;142300;-72
2022/12/01 12:35:20;;;;;;;;;;;8.10;99.90;;;;;;5048787;28;19952;-73
2022/12/01 12:37:55;;;;;;;;;;;8.70;99.90;;;;;;5005044;28;207281;-72
2022/12/01 12:40:30;;;;;;;;;;;9.80;99.90;;;;;;5065116;28;19925;-73
2022/12/01 12:43:14;;;;;;;;;;;10.90;99.90;;;;;;5000501;28;174802;-73
2022/12/01 12:45:46;;;;;;;;;;;11.60;99.90;;;;;;5054604;28;19932;-72
2022/12/01 12:48:18;;;;;;;;;;;12.00;99.90;;;;;;4953110;28;210338;-72
2022/12/01 12:50:44;;;;;;;;;;;11.60;99.90;;;;;;5032741;28;20381;-73
2022/12/01 12:53:16;;;;;;;;;;;11.70;99.90;;;;;;5000575;28;206057;-73
2022/12/01 12:55:45;;;;;;;;;;;11.40;99.90;;;;;;5049752;28;20373;-73
2022/12/01 12:58:17;;;;;;;;;;;11.10;99.90;;;;;;5002125;28;124430;-73
2022/12/01 13:00:48;;;;;;;;;;;10.90;99.90;;;;;;5028827;28;19922;-73
2022/12/01 13:03:18;;;;;;;;;;;10.50;99.90;;;;;;4954544;28;206182;-73
2022/12/01 13:05:48;;;;;;;;;;;10.30;99.90;;;;;;5044195;28;20326;-72
2022/12/01 13:08:20;;;;;;;;;;;10.00;99.90;;;;;;5013470;28;207222;-73
2022/12/01 13:10:46;;;;;;;;;;;9.70;99.90;;;;;;5073368;28;19925;-73
2022/12/01 13:13:12;;;;;;;;;;;9.50;99.90;;;;;;5004239;28;193048;-72
2022/12/01 13:15:39;;;;;;;;;;;9.20;99.90;;;;;;5066649;28;19928;-72
2022/12/01 13:18:18;;;;;;;;;;;8.90;99.90;;;;;;5006593;28;208897;-73
2022/12/01 13:20:45;;;;;;;;;;;8.70;99.90;;;;;;5072328;28;19929;-73
2022/12/01 13:23:13;;;;;;;;;;;8.50;99.90;;;;;;5025417;28;108742;-73
2022/12/01 13:25:40;;;;;;;;;;;8.30;99.90;;;;;;5069878;28;19924;-72
2022/12/01 13:28:13;;;;;;;;;;;8.00;99.90;;;;;;5029871;28;210339;-73
2022/12/01 13:30:39;;;;;;;;;;;7.90;99.90;;;;;;5068517;28;19928;-74
2022/12/01 13:33:06;;;;;;;;;;;7.80;99.90;;;;;;5038481;28;204582;-73
2022/12/01 13:35:36;;;;;;;;;;;7.70;99.90;;;;;;5070079;28;19925;-73
2022/12/01 13:38:17;;;;;;;;;;;7.60;99.90;;;;;;5019396;28;210929;-73
2022/12/01 13:40:43;;;;;;;;;;;7.60;99.90;;;;;;5069618;28;19920;-72
2022/12/01 13:43:19;;;;;;;;;;;7.50;99.90;;;;;;5006295;28;187441;-72
2022/12/01 13:45:46;;;;;;;;;;;7.40;99.90;;;;;;5072662;28;19923;-72
2022/12/01 13:48:44;;;;;;;;;;;7.30;99.90;;;;;;5030091;28;224596;-73
2022/12/01 13:51:10;;;;;;;;;;;7.30;99.90;;;;;;5071834;28;19924;-73
2022/12/01 13:53:53;;;;;;;;;;;7.20;99.90;;;;;;4985173;28;145341;-73
2022/12/01 13:56:24;;;;;;;;;;;7.10;99.90;;;;;;5039650;28;222788;-71
2022/12/01 13:58:52;;;;;;;;;;;7.10;99.90;;;;;;5066099;28;19928;-71
2022/12/01 14:01:20;;;;;;;;;;;7.10;99.90;;;;;;5054265;28;211408;-71
2022/12/01 14:04:16;;;;;;;;;;;7.00;99.90;;;;;;5040697;28;19931;-71
2022/12/01 14:06:49;;;;;;;;;;;7.00;99.90;;;;;;5026831;28;209555;-71
2022/12/01 14:09:24;;;;;;;;;;;7.00;99.90;;;;;;5080649;28;19931;-71
2022/12/01 14:11:54;;;;;;;;;;;7.00;99.90;;;;;;5055732;28;175467;-71
2022/12/01 14:14:21;;;;;;;;;;;7.00;99.90;;;;;;5055738;28;21411;-71
2022/12/01 14:16:49;;;;;;;;;;;6.90;99.90;;;;;;5024931;28;91275;-71
2022/12/01 14:19:42;;;;;;;;;;;6.90;99.90;;;;;;5068430;28;19928;-72
2022/12/01 14:22:28;;;;;;;;;;;6.90;99.90;;;;;;5023431;28;215312;-71
2022/12/01 14:24:54;;;;;;;;;;;6.90;99.90;;;;;;5080659;28;19948;-71
2022/12/01 14:27:39;;;;;;;;;;;6.90;99.90;;;;;;5035146;28;215404;-72
2022/12/01 14:30:24;;;;;;;;;;;6.80;99.90;;;;;;5083509;28;19925;-71
2022/12/01 14:32:50;;;;;;;;;;;6.70;99.90;;;;;;5049146;28;209048;-71
2022/12/01 14:35:16;;;;;;;;;;;6.70;99.90;;;;;;5081368;28;19925;-71
2022/12/01 14:37:43;;;;;;;;;;;6.70;99.90;;;;;;5042873;28;209605;-71
2022/12/01 14:40:15;;;;;;;;;;;6.60;99.90;;;;;;5077721;28;19931;-72